sensor_id;sensor_type;location;lat;lon;timestamp;temperature;humidity
20735;DHT22;10528;52.124;5.196;2022-12-18T00:04:06;-1.50;99.90
20735;DHT22;10528;52.124;5.196;2022-12-18T00:06:40;-1.40;99.90
20735;DHT22;10528;52.124;5.196;2022-12-18T00:09:09;-1.60;99.90
20735;DHT22;10528;52.124;5.196;2022-12-18T00:11:35;-1.60;99.90
20735;DHT22;10528;52.124;5.196;2022-12-18T00:14:02;-1.60;99.90
20735;DHT22;10528;52.124;5.196;2022-12-18T00:16:30;-1.60;99.90
20735;DHT22;10528;52.124;5.196;2022-12-18T00:19:00;-1.60;99.90
20735;DHT22;10528;52.124;5.196;2022-12-18T00:21:28;-1.60;99.90
20735;DHT22;10528;52.124;5.196;2022-12-18T00:23:56;-1.60;99.90
20735;DHT22;10528;52.124;5.196;2022-12-18T00:26:29;-1.60;99.90
20735;DHT22;10528;52.124;5.196;2022-12-18T00:29:03;-1.70;99.90
20735;DHT22;10528;52.124;5.196;2022-12-18T00:31:33;-1.70;99.90
20735;DHT22;10528;52.124;5.196;2022-12-18T00:34:00;-1.70;99.90
20735;DHT22;10528;52.124;5.196;2022-12-18T00:36:30;-1.70;99.90
20735;DHT22;10528;52.124;5.196;2022-12-18T00:38:59;-1.80;99.90
20735;DHT22;10528;52.124;5.196;2022-12-18T00:41:28;-1.80;99.90
20735;DHT22;10528;52.124;5.196;2022-12-18T00:44:15;-1.80;99.90
20735;DHT22;10528;52.124;5.196;2022-12-18T00:46:45;-1.80;99.90
20735;DHT22;10528;52.124;5.196;2022-12-18T00:49:14;-1.90;99.90
20735;DHT22;10528;52.124;5.196;2022-12-18T00:51:45;-1.90;99.90
20735;DHT22;10528;52.124;5.196;2022-12-18T00:54:12;-1.90;99.90
20735;DHT22;10528;52.124;5.196;2022-12-18T00:56:40;-1.90;99.90
20735;DHT22;10528;52.124;5.196;2022-12-18T00:59:18;-2.10;99.90
20735;DHT22;10528;52.124;5.196;2022-12-18T01:01:45;-2.30;99.90
20735;DHT22;10528;52.124;5.196;2022-12-18T01:04:13;-2.20;99.90
20735;DHT22;10528;52.124;5.196;2022-12-18T01:06:44;-2.20;99.90
20735;DHT22;10528;52.124;5.196;2022-12-18T01:09:11;-2.10;99.90
20735;DHT22;10528;52.124;5.196;2022-12-18T01:11:38;-2.10;99.90
20735;DHT22;10528;52.124;5.196;2022-12-18T01:14:05;-2.10;99.90
20735;DHT22;10528;52.124;5.196;2022-12-18T01:16:31;-2.00;99.90
20735;DHT22;10528;52.124;5.196;2022-12-18T01:18:58;-2.00;99.90
20735;DHT22;10528;52.124;5.196;2022-12-18T01:21:26;-2.00;99.90
20735;DHT22;10528;52.124;5.196;2022-12-18T01:23:54;-1.90;99.90
20735;DHT22;10528;52.124;5.196;2022-12-18T01:26:24;-1.90;99.90
20735;DHT22;10528;52.124;5.196;2022-12-18T01:28:51;-1.90;99.90
20735;DHT22;10528;52.124;5.196;2022-12-18T01:31:28;-2.00;99.90
20735;DHT22;10528;52.124;5.196;2022-12-18T01:33:57;-2.00;99.90
20735;DHT22;10528;52.124;5.196;2022-12-18T01:36:29;-1.90;99.90
20735;DHT22;10528;52.124;5.196;2022-12-18T01:39:04;-2.00;99.90
20735;DHT22;10528;52.124;5.196;2022-12-18T01:41:33;-2.00;99.90
20735;DHT22;10528;52.124;5.196;2022-12-18T01:52:50;-2.10;99.90
20735;DHT22;10528;52.124;5.196;2022-12-18T01:55:22;-2.00;99.90
20735;DHT22;10528;52.124;5.196;2022-12-18T01:57:55;-2.10;99.90
20735;DHT22;10528;52.124;5.196;2022-12-18T02:00:25;-2.00;99.90
20735;DHT22;10528;52.124;5.196;2022-12-18T02:02:54;-2.10;99.90
20735;DHT22;10528;52.124;5.196;2022-12-18T02:05:39;-2.20;99.90
20735;DHT22;10528;52.124;5.196;2022-12-18T02:08:26;-2.20;99.90
20735;DHT22;10528;52.124;5.196;2022-12-18T02:14:23;-2.30;99.90
20735;DHT22;10528;52.124;5.196;2022-12-18T02:17:24;-2.30;99.90
20735;DHT22;10528;52.124;5.196;2022-12-18T02:20:20;-2.20;99.90
20735;DHT22;10528;52.124;5.196;2022-12-18T02:26:07;-2.30;99.90
20735;DHT22;10528;52.124;5.196;2022-12-18T02:28:59;-2.40;99.90
20735;DHT22;10528;52.124;5.196;2022-12-18T02:31:35;-2.60;99.90
20735;DHT22;10528;52.124;5.196;2022-12-18T02:34:07;-2.70;99.90
20735;DHT22;10528;52.124;5.196;2022-12-18T02:36:39;-2.50;99.90
20735;DHT22;10528;52.124;5.196;2022-12-18T02:39:11;-2.60;99.90
20735;DHT22;10528;52.124;5.196;2022-12-18T02:41:48;-2.70;99.90
20735;DHT22;10528;52.124;5.196;2022-12-18T02:44:15;-2.80;99.90
20735;DHT22;10528;52.124;5.196;2022-12-18T02:46:48;-2.80;99.90
20735;DHT22;10528;52.124;5.196;2022-12-18T02:49:38;-2.90;99.90
20735;DHT22;10528;52.124;5.196;2022-12-18T02:52:55;-2.90;99.90
20735;DHT22;10528;52.124;5.196;2022-12-18T02:56:04;-3.00;99.90
20735;DHT22;10528;52.124;5.196;2022-12-18T03:02:06;-3.10;99.90
20735;DHT22;10528;52.124;5.196;2022-12-18T03:05:01;-3.20;99.90
20735;DHT22;10528;52.124;5.196;2022-12-18T03:07:57;-3.20;99.90
20735;DHT22;10528;52.124;5.196;2022-12-18T03:10:32;-3.30;99.90
20735;DHT22;10528;52.124;5.196;2022-12-18T03:13:16;-3.30;99.90
20735;DHT22;10528;52.124;5.196;2022-12-18T03:15:53;-3.30;99.90
20735;DHT22;10528;52.124;5.196;2022-12-18T03:18:30;-3.30;99.90
20735;DHT22;10528;52.124;5.196;2022-12-18T03:21:05;-3.30;99.90
20735;DHT22;10528;52.124;5.196;2022-12-18T03:23:43;-3.40;99.90
20735;DHT22;10528;52.124;5.196;2022-12-18T03:26:16;-3.40;99.90
20735;DHT22;10528;52.124;5.196;2022-12-18T03:29:07;-3.40;99.90
20735;DHT22;10528;52.124;5.196;2022-12-18T03:31:40;-3.50;99.90
20735;DHT22;10528;52.124;5.196;2022-12-18T03:34:13;-3.50;99.90
20735;DHT22;10528;52.124;5.196;2022-12-18T03:36:45;-3.40;99.90
20735;DHT22;10528;52.124;5.196;2022-12-18T03:39:13;-3.40;99.90
20735;DHT22;10528;52.124;5.196;2022-12-18T03:41:48;-3.40;99.90
20735;DHT22;10528;52.124;5.196;2022-12-18T03:44:36;-3.50;99.90
20735;DHT22;10528;52.124;5.196;2022-12-18T03:50:18;-3.60;99.90
20735;DHT22;10528;52.124;5.196;2022-12-18T03:53:02;-3.60;99.90
20735;DHT22;10528;52.124;5.196;2022-12-18T03:55:36;-3.70;99.90
20735;DHT22;10528;52.124;5.196;2022-12-18T03:58:07;-3.70;99.90
20735;DHT22;10528;52.124;5.196;2022-12-18T04:00:52;-3.70;99.90
20735;DHT22;10528;52.124;5.196;2022-12-18T04:03:23;-3.70;99.90
20735;DHT22;10528;52.124;5.196;2022-12-18T04:05:54;-3.70;99.90
20735;DHT22;10528;52.124;5.196;2022-12-18T04:08:23;-3.70;99.90
20735;DHT22;10528;52.124;5.196;2022-12-18T04:11:01;-3.70;99.90
20735;DHT22;10528;52.124;5.196;2022-12-18T04:13:31;-3.70;99.90
20735;DHT22;10528;52.124;5.196;2022-12-18T04:16:02;-3.60;99.90
20735;DHT22;10528;52.124;5.196;2022-12-18T04:18:30;-3.70;99.90
20735;DHT22;10528;52.124;5.196;2022-12-18T04:20:58;-3.80;99.90
20735;DHT22;10528;52.124;5.196;2022-12-18T04:23:25;-3.70;99.90
20735;DHT22;10528;52.124;5.196;2022-12-18T04:25:56;-3.70;99.90
20735;DHT22;10528;52.124;5.196;2022-12-18T04:28:37;-3.70;99.90
20735;DHT22;10528;52.124;5.196;2022-12-18T04:31:04;-3.50;99.90
20735;DHT22;10528;52.124;5.196;2022-12-18T04:33:31;-3.50;99.90
20735;DHT22;10528;52.124;5.196;2022-12-18T04:35:58;-3.60;99.90
20735;DHT22;10528;52.124;5.196;2022-12-18T04:38:26;-3.70;99.90
20735;DHT22;10528;52.124;5.196;2022-12-18T04:41:01;-3.60;99.90
20735;DHT22;10528;52.124;5.196;2022-12-18T04:43:28;-3.50;99.90
20735;DHT22;10528;52.124;5.196;2022-12-18T04:46:06;-3.60;99.90
20735;DHT22;10528;52.124;5.196;2022-12-18T04:48:34;-3.70;99.90
20735;DHT22;10528;52.124;5.196;2022-12-18T04:51:02;-3.80;99.90
20735;DHT22;10528;52.124;5.196;2022-12-18T04:53:30;-3.90;99.90
20735;DHT22;10528;52.124;5.196;2022-12-18T04:56:23;-3.80;99.90
20735;DHT22;10528;52.124;5.196;2022-12-18T04:58:50;-3.80;99.90
20735;DHT22;10528;52.124;5.196;2022-12-18T05:01:17;-3.80;99.90
20735;DHT22;10528;52.124;5.196;2022-12-18T05:03:45;-3.80;99.90
20735;DHT22;10528;52.124;5.196;2022-12-18T05:06:12;-3.70;99.90
20735;DHT22;10528;52.124;5.196;2022-12-18T05:08:39;-3.80;99.90
20735;DHT22;10528;52.124;5.196;2022-12-18T05:11:09;-3.80;99.90
20735;DHT22;10528;52.124;5.196;2022-12-18T05:13:38;-3.90;99.90
20735;DHT22;10528;52.124;5.196;2022-12-18T05:16:06;-3.90;99.90
20735;DHT22;10528;52.124;5.196;2022-12-18T05:18:34;-3.90;99.90
20735;DHT22;10528;52.124;5.196;2022-12-18T05:21:02;-4.00;99.90
20735;DHT22;10528;52.124;5.196;2022-12-18T05:23:29;-4.00;99.90
20735;DHT22;10528;52.124;5.196;2022-12-18T05:26:01;-4.10;99.90
20735;DHT22;10528;52.124;5.196;2022-12-18T05:28:30;-4.10;99.90
20735;DHT22;10528;52.124;5.196;2022-12-18T05:31:01;-4.00;99.90
20735;DHT22;10528;52.124;5.196;2022-12-18T05:33:32;-4.00;99.90
20735;DHT22;10528;52.124;5.196;2022-12-18T05:36:02;-4.00;99.90
20735;DHT22;10528;52.124;5.196;2022-12-18T05:38:31;-3.90;99.90
20735;DHT22;10528;52.124;5.196;2022-12-18T05:40:59;-4.00;99.90
20735;DHT22;10528;52.124;5.196;2022-12-18T05:43:26;-4.00;99.90
20735;DHT22;10528;52.124;5.196;2022-12-18T05:45:54;-4.00;99.90
20735;DHT22;10528;52.124;5.196;2022-12-18T05:48:21;-4.00;99.90
20735;DHT22;10528;52.124;5.196;2022-12-18T05:50:49;-4.00;99.90
20735;DHT22;10528;52.124;5.196;2022-12-18T05:53:18;-4.00;99.90
20735;DHT22;10528;52.124;5.196;2022-12-18T05:55:47;-4.00;99.90
20735;DHT22;10528;52.124;5.196;2022-12-18T05:58:14;-4.00;99.90
20735;DHT22;10528;52.124;5.196;2022-12-18T06:00:45;-4.00;99.90
20735;DHT22;10528;52.124;5.196;2022-12-18T06:03:12;-3.90;99.90
20735;DHT22;10528;52.124;5.196;2022-12-18T06:05:44;-4.00;99.90
20735;DHT22;10528;52.124;5.196;2022-12-18T06:08:12;-4.00;99.90
20735;DHT22;10528;52.124;5.196;2022-12-18T06:10:41;-3.90;99.90
20735;DHT22;10528;52.124;5.196;2022-12-18T06:13:08;-3.90;99.90
20735;DHT22;10528;52.124;5.196;2022-12-18T06:15:38;-3.90;99.90
20735;DHT22;10528;52.124;5.196;2022-12-18T06:18:05;-4.00;99.90
20735;DHT22;10528;52.124;5.196;2022-12-18T06:20:32;-4.00;99.90
20735;DHT22;10528;52.124;5.196;2022-12-18T06:23:00;-3.90;99.90
20735;DHT22;10528;52.124;5.196;2022-12-18T06:25:27;-4.00;99.90
20735;DHT22;10528;52.124;5.196;2022-12-18T06:27:54;-4.00;99.90
20735;DHT22;10528;52.124;5.196;2022-12-18T06:30:20;-4.00;99.90
20735;DHT22;10528;52.124;5.196;2022-12-18T06:32:49;-4.00;99.90
20735;DHT22;10528;52.124;5.196;2022-12-18T06:35:22;-3.90;99.90
20735;DHT22;10528;52.124;5.196;2022-12-18T06:37:49;-4.00;99.90
20735;DHT22;10528;52.124;5.196;2022-12-18T06:40:16;-4.10;99.90
20735;DHT22;10528;52.124;5.196;2022-12-18T06:42:43;-4.10;99.90
20735;DHT22;10528;52.124;5.196;2022-12-18T06:45:10;-4.00;99.90
20735;DHT22;10528;52.124;5.196;2022-12-18T06:47:40;-4.00;99.90
20735;DHT22;10528;52.124;5.196;2022-12-18T06:50:07;-4.00;99.90
20735;DHT22;10528;52.124;5.196;2022-12-18T06:52:34;-4.00;99.90
20735;DHT22;10528;52.124;5.196;2022-12-18T06:55:02;-4.00;99.90
20735;DHT22;10528;52.124;5.196;2022-12-18T06:57:29;-4.10;99.90
20735;DHT22;10528;52.124;5.196;2022-12-18T06:59:56;-4.00;99.90
20735;DHT22;10528;52.124;5.196;2022-12-18T07:02:23;-4.00;99.90
20735;DHT22;10528;52.124;5.196;2022-12-18T07:04:50;-4.00;99.90
20735;DHT22;10528;52.124;5.196;2022-12-18T07:07:17;-4.00;99.90
20735;DHT22;10528;52.124;5.196;2022-12-18T07:09:44;-4.00;99.90
20735;DHT22;10528;52.124;5.196;2022-12-18T07:12:11;-4.00;99.90
20735;DHT22;10528;52.124;5.196;2022-12-18T07:14:38;-4.10;99.90
20735;DHT22;10528;52.124;5.196;2022-12-18T07:17:04;-4.00;99.90
20735;DHT22;10528;52.124;5.196;2022-12-18T07:19:32;-4.10;99.90
20735;DHT22;10528;52.124;5.196;2022-12-18T07:21:59;-4.00;99.90
20735;DHT22;10528;52.124;5.196;2022-12-18T07:24:27;-4.10;99.90
20735;DHT22;10528;52.124;5.196;2022-12-18T07:26:54;-4.10;99.90
20735;DHT22;10528;52.124;5.196;2022-12-18T07:29:20;-4.00;99.90
20735;DHT22;10528;52.124;5.196;2022-12-18T07:31:47;-4.00;99.90
20735;DHT22;10528;52.124;5.196;2022-12-18T07:34:15;-4.00;99.90
20735;DHT22;10528;52.124;5.196;2022-12-18T07:36:43;-4.10;99.90
20735;DHT22;10528;52.124;5.196;2022-12-18T07:39:12;-4.10;99.90
20735;DHT22;10528;52.124;5.196;2022-12-18T07:41:40;-4.00;99.90
20735;DHT22;10528;52.124;5.196;2022-12-18T07:44:15;-4.00;99.90
20735;DHT22;10528;52.124;5.196;2022-12-18T07:46:41;-4.00;99.90
20735;DHT22;10528;52.124;5.196;2022-12-18T07:49:08;-4.00;99.90
20735;DHT22;10528;52.124;5.196;2022-12-18T07:51:35;-4.00;99.90
20735;DHT22;10528;52.124;5.196;2022-12-18T07:54:02;-4.00;99.90
20735;DHT22;10528;52.124;5.196;2022-12-18T07:56:29;-3.90;99.90
20735;DHT22;10528;52.124;5.196;2022-12-18T07:58:58;-3.90;99.90
20735;DHT22;10528;52.124;5.196;2022-12-18T08:01:28;-3.90;99.90
20735;DHT22;10528;52.124;5.196;2022-12-18T08:03:56;-3.90;99.90
20735;DHT22;10528;52.124;5.196;2022-12-18T08:06:24;-3.90;99.90
20735;DHT22;10528;52.124;5.196;2022-12-18T08:08:52;-3.90;99.90
20735;DHT22;10528;52.124;5.196;2022-12-18T08:11:20;-3.80;99.90
20735;DHT22;10528;52.124;5.196;2022-12-18T08:13:48;-3.70;99.90
20735;DHT22;10528;52.124;5.196;2022-12-18T08:16:15;-3.70;99.90
20735;DHT22;10528;52.124;5.196;2022-12-18T08:18:42;-3.70;99.90
20735;DHT22;10528;52.124;5.196;2022-12-18T08:21:12;-3.60;99.90
20735;DHT22;10528;52.124;5.196;2022-12-18T08:23:50;-3.60;99.90
20735;DHT22;10528;52.124;5.196;2022-12-18T08:26:19;-3.60;99.90
20735;DHT22;10528;52.124;5.196;2022-12-18T08:28:48;-3.40;99.90
20735;DHT22;10528;52.124;5.196;2022-12-18T08:31:17;-3.30;99.90
20735;DHT22;10528;52.124;5.196;2022-12-18T08:33:45;-3.30;99.90
20735;DHT22;10528;52.124;5.196;2022-12-18T08:36:14;-3.20;99.90
20735;DHT22;10528;52.124;5.196;2022-12-18T08:38:41;-3.20;99.90
20735;DHT22;10528;52.124;5.196;2022-12-18T08:41:10;-3.10;99.90
20735;DHT22;10528;52.124;5.196;2022-12-18T08:43:39;-3.10;99.90
20735;DHT22;10528;52.124;5.196;2022-12-18T08:46:26;-3.10;99.90
20735;DHT22;10528;52.124;5.196;2022-12-18T08:48:57;-3.10;99.90
20735;DHT22;10528;52.124;5.196;2022-12-18T08:51:24;-3.10;99.90
20735;DHT22;10528;52.124;5.196;2022-12-18T08:53:51;-3.00;99.90
20735;DHT22;10528;52.124;5.196;2022-12-18T08:56:18;-2.90;99.90
20735;DHT22;10528;52.124;5.196;2022-12-18T08:58:45;-2.90;99.90
20735;DHT22;10528;52.124;5.196;2022-12-18T09:01:12;-2.90;99.90
20735;DHT22;10528;52.124;5.196;2022-12-18T09:03:40;-2.80;99.90
20735;DHT22;10528;52.124;5.196;2022-12-18T09:06:08;-2.70;99.90
20735;DHT22;10528;52.124;5.196;2022-12-18T09:08:35;-2.80;99.90
20735;DHT22;10528;52.124;5.196;2022-12-18T09:11:03;-2.70;99.90
20735;DHT22;10528;52.124;5.196;2022-12-18T09:13:30;-2.60;99.90
20735;DHT22;10528;52.124;5.196;2022-12-18T09:15:58;-2.70;99.90
20735;DHT22;10528;52.124;5.196;2022-12-18T09:18:25;-2.50;99.90
20735;DHT22;10528;52.124;5.196;2022-12-18T09:20:52;-2.50;99.90
20735;DHT22;10528;52.124;5.196;2022-12-18T09:23:20;-2.40;99.90
20735;DHT22;10528;52.124;5.196;2022-12-18T09:25:48;-2.30;99.90
20735;DHT22;10528;52.124;5.196;2022-12-18T09:28:18;-2.40;99.90
20735;DHT22;10528;52.124;5.196;2022-12-18T09:30:48;-2.30;99.90
20735;DHT22;10528;52.124;5.196;2022-12-18T09:33:16;-2.20;99.90
20735;DHT22;10528;52.124;5.196;2022-12-18T09:35:44;-2.10;99.90
20735;DHT22;10528;52.124;5.196;2022-12-18T09:38:16;-2.00;99.90
20735;DHT22;10528;52.124;5.196;2022-12-18T09:40:48;-2.10;99.90
20735;DHT22;10528;52.124;5.196;2022-12-18T09:43:21;-2.10;99.90
20735;DHT22;10528;52.124;5.196;2022-12-18T09:46:03;-2.10;99.90
20735;DHT22;10528;52.124;5.196;2022-12-18T09:48:42;-2.00;99.90
20735;DHT22;10528;52.124;5.196;2022-12-18T09:51:16;-2.00;99.90
20735;DHT22;10528;52.124;5.196;2022-12-18T09:53:52;-1.90;99.90
20735;DHT22;10528;52.124;5.196;2022-12-18T09:56:25;-1.90;99.90
20735;DHT22;10528;52.124;5.196;2022-12-18T09:59:00;-2.00;99.90
20735;DHT22;10528;52.124;5.196;2022-12-18T10:01:29;-1.90;99.90
20735;DHT22;10528;52.124;5.196;2022-12-18T10:04:09;-1.90;99.90
20735;DHT22;10528;52.124;5.196;2022-12-18T10:06:58;-1.90;99.90
20735;DHT22;10528;52.124;5.196;2022-12-18T10:09:40;-1.80;99.90
20735;DHT22;10528;52.124;5.196;2022-12-18T10:15:23;-1.50;99.90
20735;DHT22;10528;52.124;5.196;2022-12-18T10:21:06;-1.40;99.90
20735;DHT22;10528;52.124;5.196;2022-12-18T10:23:50;-1.40;99.90
20735;DHT22;10528;52.124;5.196;2022-12-18T10:26:42;-1.50;99.90
20735;DHT22;10528;52.124;5.196;2022-12-18T10:29:15;-1.40;99.90
20735;DHT22;10528;52.124;5.196;2022-12-18T10:31:42;-1.40;99.90
20735;DHT22;10528;52.124;5.196;2022-12-18T10:34:11;-1.40;99.90
20735;DHT22;10528;52.124;5.196;2022-12-18T10:36:41;-1.30;99.90
20735;DHT22;10528;52.124;5.196;2022-12-18T10:39:20;-1.30;99.90
20735;DHT22;10528;52.124;5.196;2022-12-18T10:41:49;-1.20;99.90
20735;DHT22;10528;52.124;5.196;2022-12-18T10:44:22;-1.20;99.90
20735;DHT22;10528;52.124;5.196;2022-12-18T10:47:05;-1.20;99.90
20735;DHT22;10528;52.124;5.196;2022-12-18T10:49:47;-1.10;99.90
20735;DHT22;10528;52.124;5.196;2022-12-18T10:52:21;-1.00;99.90
20735;DHT22;10528;52.124;5.196;2022-12-18T10:55:03;-0.90;99.90
20735;DHT22;10528;52.124;5.196;2022-12-18T10:57:33;-0.90;99.90
20735;DHT22;10528;52.124;5.196;2022-12-18T11:00:28;-0.80;99.90
20735;DHT22;10528;52.124;5.196;2022-12-18T11:02:57;-0.80;99.90
20735;DHT22;10528;52.124;5.196;2022-12-18T11:05:28;-0.90;99.90
20735;DHT22;10528;52.124;5.196;2022-12-18T11:07:57;-0.80;99.90
20735;DHT22;10528;52.124;5.196;2022-12-18T11:10:32;-0.80;99.90
20735;DHT22;10528;52.124;5.196;2022-12-18T11:13:18;-0.70;99.90
20735;DHT22;10528;52.124;5.196;2022-12-18T11:15:51;-0.80;99.90
20735;DHT22;10528;52.124;5.196;2022-12-18T11:18:30;-0.80;99.90
20735;DHT22;10528;52.124;5.196;2022-12-18T11:21:08;-0.70;99.90
20735;DHT22;10528;52.124;5.196;2022-12-18T11:23:37;-0.60;99.90
20735;DHT22;10528;52.124;5.196;2022-12-18T11:26:16;-0.60;99.90
20735;DHT22;10528;52.124;5.196;2022-12-18T11:28:47;-0.60;99.90
20735;DHT22;10528;52.124;5.196;2022-12-18T11:31:23;-0.40;99.90
20735;DHT22;10528;52.124;5.196;2022-12-18T11:34:22;-0.40;99.90
20735;DHT22;10528;52.124;5.196;2022-12-18T11:36:58;-0.40;99.90
20735;DHT22;10528;52.124;5.196;2022-12-18T11:39:35;-0.20;99.90
20735;DHT22;10528;52.124;5.196;2022-12-18T11:42:27;-0.20;99.90
20735;DHT22;10528;52.124;5.196;2022-12-18T11:51:02;-0.20;99.90
20735;DHT22;10528;52.124;5.196;2022-12-18T11:53:32;-0.20;99.90
20735;DHT22;10528;52.124;5.196;2022-12-18T11:59:28;-0.10;99.90
20735;DHT22;10528;52.124;5.196;2022-12-18T12:02:41;0.00;99.90
20735;DHT22;10528;52.124;5.196;2022-12-18T12:11:17;-0.10;99.90
20735;DHT22;10528;52.124;5.196;2022-12-18T12:17:14;-0.10;99.90
20735;DHT22;10528;52.124;5.196;2022-12-18T12:23:17;0.10;99.90
20735;DHT22;10528;52.124;5.196;2022-12-18T12:29:01;0.10;99.90
20735;DHT22;10528;52.124;5.196;2022-12-18T12:32:14;0.10;99.90
20735;DHT22;10528;52.124;5.196;2022-12-18T12:35:46;0.20;99.90
20735;DHT22;10528;52.124;5.196;2022-12-18T12:38:18;0.30;99.90
20735;DHT22;10528;52.124;5.196;2022-12-18T12:41:01;0.30;99.90
20735;DHT22;10528;52.124;5.196;2022-12-18T12:43:43;0.30;99.90
20735;DHT22;10528;52.124;5.196;2022-12-18T12:46:19;0.40;99.90
20735;DHT22;10528;52.124;5.196;2022-12-18T12:48:57;0.30;99.90
20735;DHT22;10528;52.124;5.196;2022-12-18T12:51:34;0.20;99.90
20735;DHT22;10528;52.124;5.196;2022-12-18T12:54:06;0.30;99.90
20735;DHT22;10528;52.124;5.196;2022-12-18T12:56:51;0.30;99.90
20735;DHT22;10528;52.124;5.196;2022-12-18T12:59:35;0.30;99.90
20735;DHT22;10528;52.124;5.196;2022-12-18T13:05:11;0.30;99.90
20735;DHT22;10528;52.124;5.196;2022-12-18T13:07:51;0.30;99.90
20735;DHT22;10528;52.124;5.196;2022-12-18T13:13:05;0.40;99.90
20735;DHT22;10528;52.124;5.196;2022-12-18T13:15:45;0.40;99.90
20735;DHT22;10528;52.124;5.196;2022-12-18T13:18:16;0.40;99.90
20735;DHT22;10528;52.124;5.196;2022-12-18T13:23:34;0.50;99.90
20735;DHT22;10528;52.124;5.196;2022-12-18T13:36:55;0.60;99.90
20735;DHT22;10528;52.124;5.196;2022-12-18T13:39:38;0.50;99.90
20735;DHT22;10528;52.124;5.196;2022-12-18T13:44:37;0.50;99.90
20735;DHT22;10528;52.124;5.196;2022-12-18T13:47:32;0.50;99.90
20735;DHT22;10528;52.124;5.196;2022-12-18T13:50:09;0.50;99.90
20735;DHT22;10528;52.124;5.196;2022-12-18T13:52:51;0.50;99.90
20735;DHT22;10528;52.124;5.196;2022-12-18T13:55:20;0.60;99.90
20735;DHT22;10528;52.124;5.196;2022-12-18T13:57:48;0.60;99.90
20735;DHT22;10528;52.124;5.196;2022-12-18T14:00:28;0.60;99.90
20735;DHT22;10528;52.124;5.196;2022-12-18T14:02:57;0.60;99.90
20735;DHT22;10528;52.124;5.196;2022-12-18T14:07:54;0.90;99.90
20735;DHT22;10528;52.124;5.196;2022-12-18T14:10:25;0.80;99.90
20735;DHT22;10528;52.124;5.196;2022-12-18T14:13:26;0.70;99.90
20735;DHT22;10528;52.124;5.196;2022-12-18T14:15:56;0.70;99.90
20735;DHT22;10528;52.124;5.196;2022-12-18T14:18:39;0.70;99.90
20735;DHT22;10528;52.124;5.196;2022-12-18T14:21:20;0.70;99.90
20735;DHT22;10528;52.124;5.196;2022-12-18T14:24:03;0.60;99.90
20735;DHT22;10528;52.124;5.196;2022-12-18T14:26:52;0.70;99.90
20735;DHT22;10528;52.124;5.196;2022-12-18T14:29:30;0.70;99.90
20735;DHT22;10528;52.124;5.196;2022-12-18T14:32:10;0.70;99.90
20735;DHT22;10528;52.124;5.196;2022-12-18T14:34:48;0.70;99.90
20735;DHT22;10528;52.124;5.196;2022-12-18T14:37:23;0.70;99.90
20735;DHT22;10528;52.124;5.196;2022-12-18T14:39:53;0.70;99.90
20735;DHT22;10528;52.124;5.196;2022-12-18T14:42:21;0.70;99.90
20735;DHT22;10528;52.124;5.196;2022-12-18T14:44:48;0.80;99.90
20735;DHT22;10528;52.124;5.196;2022-12-18T14:47:35;0.70;99.90
20735;DHT22;10528;52.124;5.196;2022-12-18T14:50:02;0.70;99.90
20735;DHT22;10528;52.124;5.196;2022-12-18T14:52:31;0.70;99.90
20735;DHT22;10528;52.124;5.196;2022-12-18T14:54:58;0.70;99.90
20735;DHT22;10528;52.124;5.196;2022-12-18T14:57:30;0.80;99.90
20735;DHT22;10528;52.124;5.196;2022-12-18T15:00:15;0.70;99.90
20735;DHT22;10528;52.124;5.196;2022-12-18T15:02:50;0.80;99.90
20735;DHT22;10528;52.124;5.196;2022-12-18T15:05:25;0.80;99.90
20735;DHT22;10528;52.124;5.196;2022-12-18T15:07:57;0.80;99.90
20735;DHT22;10528;52.124;5.196;2022-12-18T15:10:33;0.90;99.90
20735;DHT22;10528;52.124;5.196;2022-12-18T15:18:13;0.90;99.90
20735;DHT22;10528;52.124;5.196;2022-12-18T15:23:36;0.80;99.90
20735;DHT22;10528;52.124;5.196;2022-12-18T15:26:13;0.80;99.90
20735;DHT22;10528;52.124;5.196;2022-12-18T15:31:31;0.80;99.90
20735;DHT22;10528;52.124;5.196;2022-12-18T15:34:10;0.90;99.90
20735;DHT22;10528;52.124;5.196;2022-12-18T15:36:40;0.80;99.90
20735;DHT22;10528;52.124;5.196;2022-12-18T15:39:09;0.90;99.90
20735;DHT22;10528;52.124;5.196;2022-12-18T15:41:38;0.80;99.90
20735;DHT22;10528;52.124;5.196;2022-12-18T15:44:24;0.80;99.90
20735;DHT22;10528;52.124;5.196;2022-12-18T15:46:52;0.80;99.90
20735;DHT22;10528;52.124;5.196;2022-12-18T15:49:22;0.80;99.90
20735;DHT22;10528;52.124;5.196;2022-12-18T15:51:52;0.80;99.90
20735;DHT22;10528;52.124;5.196;2022-12-18T15:54:21;0.80;99.90
20735;DHT22;10528;52.124;5.196;2022-12-18T15:57:10;0.80;99.90
20735;DHT22;10528;52.124;5.196;2022-12-18T15:59:55;0.80;99.90
20735;DHT22;10528;52.124;5.196;2022-12-18T16:02:24;0.90;99.90
20735;DHT22;10528;52.124;5.196;2022-12-18T16:04:52;0.90;99.90
20735;DHT22;10528;52.124;5.196;2022-12-18T16:07:20;0.90;99.90
20735;DHT22;10528;52.124;5.196;2022-12-18T16:09:51;0.90;99.90
20735;DHT22;10528;52.124;5.196;2022-12-18T16:12:22;0.80;99.90
20735;DHT22;10528;52.124;5.196;2022-12-18T16:14:51;0.90;99.90
20735;DHT22;10528;52.124;5.196;2022-12-18T16:17:20;0.90;99.90
20735;DHT22;10528;52.124;5.196;2022-12-18T16:19:46;0.90;99.90
20735;DHT22;10528;52.124;5.196;2022-12-18T16:22:22;0.90;99.90
20735;DHT22;10528;52.124;5.196;2022-12-18T16:24:52;0.90;99.90
20735;DHT22;10528;52.124;5.196;2022-12-18T16:27:21;0.90;99.90
20735;DHT22;10528;52.124;5.196;2022-12-18T16:29:49;0.90;99.90
20735;DHT22;10528;52.124;5.196;2022-12-18T16:32:18;1.00;99.90
20735;DHT22;10528;52.124;5.196;2022-12-18T16:34:47;1.00;99.90
20735;DHT22;10528;52.124;5.196;2022-12-18T16:37:15;1.00;99.90
20735;DHT22;10528;52.124;5.196;2022-12-18T16:39:42;1.00;99.90
20735;DHT22;10528;52.124;5.196;2022-12-18T16:42:16;1.00;99.90
20735;DHT22;10528;52.124;5.196;2022-12-18T16:44:47;1.10;99.90
20735;DHT22;10528;52.124;5.196;2022-12-18T16:47:15;1.00;99.90
20735;DHT22;10528;52.124;5.196;2022-12-18T16:49:44;0.90;99.90
20735;DHT22;10528;52.124;5.196;2022-12-18T16:52:12;1.00;99.90
20735;DHT22;10528;52.124;5.196;2022-12-18T16:54:39;0.90;99.90
20735;DHT22;10528;52.124;5.196;2022-12-18T16:57:06;1.00;99.90
20735;DHT22;10528;52.124;5.196;2022-12-18T16:59:35;1.00;99.90
20735;DHT22;10528;52.124;5.196;2022-12-18T17:02:16;1.00;99.90
20735;DHT22;10528;52.124;5.196;2022-12-18T17:04:52;1.00;99.90
20735;DHT22;10528;52.124;5.196;2022-12-18T17:07:20;1.00;99.90
20735;DHT22;10528;52.124;5.196;2022-12-18T17:09:47;1.00;99.90
20735;DHT22;10528;52.124;5.196;2022-12-18T17:12:16;1.00;99.90
20735;DHT22;10528;52.124;5.196;2022-12-18T17:14:43;1.00;99.90
20735;DHT22;10528;52.124;5.196;2022-12-18T17:17:10;1.00;99.90
20735;DHT22;10528;52.124;5.196;2022-12-18T17:19:52;1.00;99.90
20735;DHT22;10528;52.124;5.196;2022-12-18T17:22:20;1.00;99.90
20735;DHT22;10528;52.124;5.196;2022-12-18T17:24:48;1.10;99.90
20735;DHT22;10528;52.124;5.196;2022-12-18T17:27:15;1.00;99.90
20735;DHT22;10528;52.124;5.196;2022-12-18T17:29:43;1.00;99.90
20735;DHT22;10528;52.124;5.196;2022-12-18T17:32:14;1.10;99.90
20735;DHT22;10528;52.124;5.196;2022-12-18T17:34:42;1.00;99.90
20735;DHT22;10528;52.124;5.196;2022-12-18T17:37:09;1.10;99.90
20735;DHT22;10528;52.124;5.196;2022-12-18T17:39:36;1.00;99.90
20735;DHT22;10528;52.124;5.196;2022-12-18T17:42:03;1.10;99.90